< < Back
Terminal Aerodrome Forecast


Current Version              Previous Versions:   1  2  3  4  5  6  7  8  9  

Terminal Aerodrome Forecast

273
FTUS42 KGSP 051728
TAFAND
TAF
KAND 051728Z 0518/0618 29012G20KT P6SM VCSH BKN070
     FM052300 31008KT P6SM VCSH BKN060
     FM060500 27005KT P6SM BKN080
     FM061500 34008KT P6SM FEW080=

Latest METAR

934
SAUS70 KWBC 060700 RRF
MTRAND
METAR KAND 060656Z AUTO 30007KT 10SM FEW085 11/04 A2979 RMK AO2 SLP083
T01060039


USA.gov is the U.S. government's official web portal to all federal, state and local government web resources and services.